KDNL/DNL METAR and TAF weather

Enter ICAO airport designator
Station Type Date Time Source
KDNL METAR 2018/06/25 16:53 UTC NOAA

KDNL 251653Z AUTO VRB06KT 10SM CLR 34/23 A3009 RMK AO2 SLP183 T03390228


Station Type Date Time Source
KDNL Decoded METAR 2018/06/25 16:53 UTC NOAA

AUGUSTA DANIEL FIELD, GA, United States (KDNL) 33-28N 82-02W 130M
Jun 25, 2018 - 12:53 PM EDT / 2018.06.25 1653 UTC
Wind: Variable at 7 MPH (6 KT):0
Visibility: 10 mile(s):0
Sky conditions: clear
Temperature: 93.0 F (33.9 C)
Heat index: 101.8 F (38.8 C):1
Dew Point: 73.0 F (22.8 C)
Relative Humidity: 52%
Pressure (altimeter): 30.09 in. Hg (1018 hPa)
ob: KDNL 251653Z AUTO VRB06KT 10SM CLR 34/23 A3009 RMK AO2 SLP183 T03390228
cycle: 17

Station Type Date Time Source
KDNL TAF 2018/06/25 15:51 UTC NOAA

TAF
AMD KDNL 251447Z 2515/2612 18005KT P6SM SKC
FM251800 24007KT P6SM SCT040
FM260000 18004KT 6SM -SHRA SCT020 BKN035
TEMPO 2600/2604 3SM TSRA OVC020CB


Example: see airport list